Terminal Aerodrome Forecast
Issued by NWS Cleveland, OH

Home | Current Version | Previous Version | Text Only | Print | Product List | Glossary Off
Versions: 1 2 3 4 5 6 7 8 9 10 11 12 13 14 15 16 17 18 19 20 21 22 23

000
FTUS41 KCLE 270205 AAA
TAFERI
TAF AMD
KERI 270205Z 2702/2724 16010KT P6SM VCSH BKN050
      TEMPO 2704/2707 5SM -SHRA BR OVC025
     FM270700 18008KT 4SM BR OVC010
     FM271500 23006KT P6SM OVC020=

USA.gov is the U.S. government's official web portal to all federal, state and local government web resources and services.